createdAt,value
2018-07-23T00:01:25.169Z,17.63
2018-07-23T00:03:53.341Z,18.53
2018-07-23T00:06:21.477Z,17.77
2018-07-23T00:08:49.938Z,20.50
2018-07-23T00:11:18.405Z,19.63
2018-07-23T00:13:46.835Z,19.13
2018-07-23T00:16:15.331Z,19.50
2018-07-23T00:18:43.774Z,19.57
2018-07-23T00:21:12.250Z,20.50
2018-07-23T00:23:40.702Z,21.57
2018-07-23T00:26:09.177Z,21.73
2018-07-23T00:28:37.630Z,22.10
2018-07-23T00:31:06.126Z,20.40
2018-07-23T00:33:34.571Z,21.27
2018-07-23T00:36:03.042Z,20.23
2018-07-23T00:38:31.718Z,21.20
2018-07-23T00:41:00.210Z,20.13
2018-07-23T00:43:28.884Z,20.83
2018-07-23T00:45:57.365Z,20.40
2018-07-23T00:48:25.805Z,21.97
2018-07-23T00:50:54.290Z,21.20
2018-07-23T00:53:22.432Z,21.27
2018-07-23T00:55:50.883Z,21.67
2018-07-23T00:58:19.588Z,23.93
2018-07-23T01:00:48.064Z,23.13
2018-07-23T01:03:16.577Z,23.80
2018-07-23T01:05:45.063Z,24.40
2018-07-23T01:08:13.509Z,23.40
2018-07-23T01:10:42.008Z,21.33
2018-07-23T01:13:10.470Z,24.07
2018-07-23T01:15:38.961Z,25.87
2018-07-23T01:18:07.425Z,28.00
2018-07-23T01:20:35.915Z,25.40
2018-07-23T01:23:04.373Z,26.67
2018-07-23T01:25:32.728Z,27.27
2018-07-23T01:28:01.160Z,25.30
2018-07-23T01:30:29.614Z,25.83
2018-07-23T01:32:58.089Z,26.20
2018-07-23T01:35:26.566Z,27.87
2018-07-23T01:37:55.049Z,28.63
2018-07-23T01:40:23.481Z,25.70
2018-07-23T01:42:51.946Z,26.33
2018-07-23T01:45:20.424Z,28.17
2018-07-23T01:47:48.879Z,26.47
2018-07-23T01:50:17.016Z,28.40
2018-07-23T01:52:45.515Z,27.73
2018-07-23T01:55:14.006Z,28.63
2018-07-23T01:57:42.730Z,29.00
2018-07-23T02:00:11.234Z,32.20
2018-07-23T02:02:39.694Z,30.57
2018-07-23T02:05:08.175Z,28.37
2018-07-23T02:07:36.646Z,29.23
2018-07-23T02:10:05.397Z,31.33
2018-07-23T02:12:33.870Z,29.87
2018-07-23T02:15:02.309Z,30.27
2018-07-23T02:17:30.770Z,28.30
2018-07-23T02:19:58.885Z,32.23
2018-07-23T02:22:27.373Z,28.47
2018-07-23T02:24:55.860Z,31.30
2018-07-23T02:27:24.319Z,29.20
2018-07-23T02:29:52.759Z,29.13
2018-07-23T02:32:21.279Z,31.03
2018-07-23T02:34:49.726Z,31.80
2018-07-23T02:37:18.207Z,29.70
2018-07-23T02:39:46.695Z,32.70
2018-07-23T02:42:15.200Z,31.67
2018-07-23T02:44:43.703Z,32.67
2018-07-23T02:47:12.153Z,35.03
2018-07-23T02:49:40.316Z,35.50
2018-07-23T02:52:08.779Z,34.13
2018-07-23T02:54:37.276Z,34.40
2018-07-23T02:57:05.754Z,34.87
2018-07-23T02:59:36.364Z,35.97
2018-07-23T03:02:04.831Z,34.73
2018-07-23T03:04:33.277Z,37.57
2018-07-23T03:07:01.777Z,35.93
2018-07-23T03:09:30.226Z,36.77
2018-07-23T03:11:58.377Z,34.60
2018-07-23T03:14:26.846Z,35.87
2018-07-23T03:16:55.303Z,33.90
2018-07-23T03:19:23.776Z,36.07
2018-07-23T03:21:52.330Z,35.07
2018-07-23T03:24:20.778Z,35.73
2018-07-23T03:26:49.266Z,36.10
2018-07-23T03:29:17.753Z,35.13
2018-07-23T03:31:46.238Z,34.40
2018-07-23T03:34:14.931Z,36.30
2018-07-23T03:36:43.405Z,37.10
2018-07-23T03:39:11.909Z,37.07
2018-07-23T03:41:40.030Z,34.57
2018-07-23T03:44:08.524Z,33.97
2018-07-23T03:46:37.013Z,35.37
2018-07-23T03:49:05.706Z,34.97
2018-07-23T03:51:34.173Z,35.43
2018-07-23T03:54:02.656Z,35.87
2018-07-23T03:56:31.133Z,36.00
2018-07-23T03:58:59.623Z,34.60
2018-07-23T04:01:28.354Z,34.77
2018-07-23T04:03:56.833Z,37.97
2018-07-23T04:06:24.976Z,36.53
2018-07-23T04:08:53.691Z,36.30
2018-07-23T04:11:22.229Z,35.90
2018-07-23T04:13:50.714Z,35.23
2018-07-23T04:16:19.166Z,34.60
2018-07-23T04:18:47.630Z,33.40
2018-07-23T04:21:16.095Z,31.47
2018-07-23T04:23:44.569Z,34.27
2018-07-23T04:26:13.057Z,32.80
2018-07-23T04:28:41.714Z,33.17
2018-07-23T04:31:10.218Z,30.97
2018-07-23T04:33:38.698Z,30.07
2018-07-23T04:36:07.191Z,29.00
2018-07-23T04:38:35.654Z,30.00
2018-07-23T04:41:04.158Z,29.63
2018-07-23T04:43:32.657Z,28.67
2018-07-23T04:46:01.147Z,30.07
2018-07-23T04:48:29.621Z,28.10
2018-07-23T04:50:57.732Z,28.47
2018-07-23T04:53:26.411Z,28.47
2018-07-23T04:55:54.609Z,26.30
2018-07-23T04:58:23.074Z,25.60
2018-07-23T05:00:51.765Z,25.43
2018-07-23T05:03:20.242Z,24.60
2018-07-23T05:05:48.851Z,27.00
2018-07-23T05:08:17.410Z,26.10
2018-07-23T05:10:45.995Z,25.73
2018-07-23T05:13:14.485Z,24.53
2018-07-23T05:15:42.993Z,26.43
2018-07-23T05:18:11.716Z,26.63
2018-07-23T05:20:39.912Z,26.43
2018-07-23T05:23:08.362Z,25.00
2018-07-23T05:25:36.971Z,27.50
2018-07-23T05:28:05.394Z,25.27
2018-07-23T05:30:33.870Z,25.93
2018-07-23T05:33:02.357Z,27.07
2018-07-23T05:35:30.806Z,26.60
2018-07-23T05:37:59.255Z,29.27
2018-07-23T05:40:27.426Z,27.70
2018-07-23T05:42:56.139Z,26.60
2018-07-23T05:45:24.580Z,28.50
2018-07-23T05:47:53.050Z,27.97
2018-07-23T05:50:21.521Z,29.17
2018-07-23T05:52:50.006Z,26.00
2018-07-23T05:55:18.482Z,25.93
2018-07-23T05:57:46.958Z,25.13
2018-07-23T06:00:15.462Z,26.30
2018-07-23T06:02:43.915Z,27.13
2018-07-23T06:05:12.414Z,27.13
2018-07-23T06:07:40.887Z,26.00
2018-07-23T06:10:09.464Z,26.80
2018-07-23T06:12:38.198Z,26.00
2018-07-23T06:15:07.277Z,27.00
2018-07-23T06:17:35.824Z,26.60
2018-07-23T06:20:05.335Z,27.03
2018-07-23T06:22:33.798Z,26.03
2018-07-23T06:25:02.534Z,29.67
2018-07-23T06:27:31.007Z,26.07
2018-07-23T06:29:59.511Z,26.40
2018-07-23T06:32:27.969Z,26.87
2018-07-23T06:34:56.505Z,28.50
2018-07-23T06:37:24.681Z,24.80
2018-07-23T06:39:52.832Z,25.57
2018-07-23T06:42:21.310Z,25.70
2018-07-23T06:44:49.762Z,23.73
2018-07-23T06:47:18.273Z,22.80
2018-07-23T06:49:46.739Z,23.97
2018-07-23T06:52:15.238Z,25.33
2018-07-23T06:54:43.846Z,24.87
2018-07-23T06:57:12.310Z,25.20
2018-07-23T06:59:40.813Z,23.60
2018-07-23T07:02:09.019Z,23.63
2018-07-23T07:04:37.477Z,24.90
2018-07-23T07:07:05.955Z,25.00
2018-07-23T07:09:34.468Z,25.47
2018-07-23T07:12:02.994Z,26.53
2018-07-23T07:14:31.540Z,27.60
2018-07-23T07:17:00.046Z,27.13
2018-07-23T07:19:28.526Z,31.07
2018-07-23T07:21:57.303Z,26.30
2018-07-23T07:24:25.775Z,27.90
2018-07-23T07:26:54.254Z,26.47
2018-07-23T07:29:23.050Z,27.67
2018-07-23T07:31:51.528Z,29.97
2018-07-23T07:34:20.007Z,27.50
2018-07-23T07:36:48.515Z,28.20
2018-07-23T07:39:17.057Z,26.10
2018-07-23T07:41:45.558Z,26.90
2018-07-23T07:44:14.090Z,28.33
2018-07-23T07:46:42.693Z,27.23
2018-07-23T07:49:11.195Z,26.33
2018-07-23T07:51:40.236Z,28.63
2018-07-23T07:54:09.317Z,25.73
2018-07-23T07:56:37.829Z,27.47
2018-07-23T07:59:06.427Z,26.70
2018-07-23T08:01:34.909Z,27.60
2018-07-23T08:04:03.127Z,26.27
2018-07-23T08:06:31.648Z,25.47
2018-07-23T08:09:00.175Z,24.90
2018-07-23T08:11:28.676Z,26.40
2018-07-23T08:13:57.195Z,24.90
2018-07-23T08:16:25.714Z,26.33
2018-07-23T08:18:53.949Z,25.53
2018-07-23T08:21:22.458Z,25.70
2018-07-23T08:23:50.959Z,27.57
2018-07-23T08:26:19.449Z,25.00
2018-07-23T08:28:47.965Z,24.90
2018-07-23T08:31:16.557Z,24.53
2018-07-23T08:33:45.021Z,25.00
2018-07-23T08:36:13.538Z,21.60
2018-07-23T08:38:42.078Z,24.20
2018-07-23T08:41:10.538Z,22.87
2018-07-23T08:43:39.057Z,22.33
2018-07-23T08:46:07.576Z,21.67
2018-07-23T08:48:35.813Z,23.50
2018-07-23T08:51:04.141Z,23.67
2018-07-23T08:53:32.620Z,20.87
2018-07-23T08:56:01.097Z,21.27
2018-07-23T08:58:29.585Z,21.23
2018-07-23T09:00:58.084Z,21.40
2018-07-23T09:03:26.218Z,21.00
2018-07-23T09:05:54.715Z,22.50
2018-07-23T09:08:23.251Z,19.50
2018-07-23T09:10:51.746Z,20.57
2018-07-23T09:13:20.579Z,20.80
2018-07-23T09:15:49.051Z,24.10
2018-07-23T09:18:17.529Z,20.70
2018-07-23T09:20:45.996Z,17.97
2018-07-23T09:23:14.494Z,20.00
2018-07-23T09:25:46.388Z,21.67
2018-07-23T09:28:16.050Z,21.00
2018-07-23T09:30:51.986Z,20.47
2018-07-23T09:33:21.762Z,21.40
2018-07-23T09:35:50.566Z,22.90
2018-07-23T09:38:19.750Z,21.60
2018-07-23T09:40:48.125Z,20.33
2018-07-23T09:43:16.698Z,20.93
2018-07-23T09:45:45.262Z,23.63
2018-07-23T09:48:13.745Z,23.63
2018-07-23T09:50:42.384Z,20.07
2018-07-23T09:53:11.054Z,20.80
2018-07-23T09:55:39.201Z,21.23
2018-07-23T09:58:07.906Z,23.20
2018-07-23T10:00:41.667Z,24.80
2018-07-23T10:03:10.475Z,25.30
2018-07-23T10:05:39.102Z,22.80
2018-07-23T10:08:07.587Z,24.67
2018-07-23T10:10:36.066Z,23.43
2018-07-23T10:13:04.627Z,23.80
2018-07-23T10:15:33.126Z,25.17
2018-07-23T10:18:01.525Z,22.87
2018-07-23T10:20:29.994Z,24.53
2018-07-23T10:22:58.530Z,25.03
2018-07-23T10:25:27.005Z,23.40
2018-07-23T10:27:55.476Z,25.07
2018-07-23T10:30:23.959Z,23.77
2018-07-23T10:32:52.413Z,19.60
2018-07-23T10:35:21.022Z,20.57
2018-07-23T10:37:49.494Z,21.00
2018-07-23T10:40:19.027Z,23.57
2018-07-23T10:42:47.729Z,19.37
2018-07-23T10:45:16.458Z,20.17
2018-07-23T10:47:44.587Z,22.67
2018-07-23T10:50:13.151Z,19.70
2018-07-23T10:52:41.625Z,19.00
2018-07-23T10:55:10.095Z,19.27
2018-07-23T10:57:38.625Z,18.13
2018-07-23T11:00:07.355Z,19.13
2018-07-23T11:02:36.239Z,20.50
2018-07-23T11:05:04.386Z,18.90
2018-07-23T11:07:32.858Z,20.10
2018-07-23T11:10:01.315Z,21.13
2018-07-23T11:12:29.790Z,19.13
2018-07-23T11:14:58.230Z,19.67
2018-07-23T11:17:26.730Z,19.13
2018-07-23T11:19:55.206Z,19.20
2018-07-23T11:22:23.682Z,18.50
2018-07-23T11:24:52.221Z,20.30
2018-07-23T11:27:20.682Z,17.20
2018-07-23T11:29:49.151Z,16.87
2018-07-23T11:32:17.597Z,17.27
2018-07-23T11:34:46.086Z,17.63
2018-07-23T11:37:14.571Z,17.80
2018-07-23T11:39:42.709Z,16.40
2018-07-23T11:42:11.202Z,17.63
2018-07-23T11:44:39.642Z,17.37
2018-07-23T11:47:08.095Z,17.33
2018-07-23T11:49:36.586Z,18.10
2018-07-23T11:52:05.082Z,16.00
2018-07-23T11:54:33.591Z,17.13
2018-07-23T11:57:02.088Z,16.50
2018-07-23T11:59:31.241Z,18.20
2018-07-23T12:01:59.738Z,16.87
2018-07-23T12:04:28.215Z,14.90
2018-07-23T12:06:56.730Z,16.20
2018-07-23T12:09:25.187Z,17.60
2018-07-23T12:11:53.937Z,16.57
2018-07-23T12:14:22.636Z,16.27
2018-07-23T12:16:50.787Z,14.60
2018-07-23T12:19:19.364Z,14.93
2018-07-23T12:21:47.848Z,15.63
2018-07-23T12:24:16.342Z,14.80
2018-07-23T12:26:45.152Z,15.40
2018-07-23T12:29:13.749Z,14.50
2018-07-23T12:31:42.262Z,15.37
2018-07-23T12:34:11.141Z,15.87
2018-07-23T12:36:39.692Z,14.70
2018-07-23T12:39:12.861Z,15.87
2018-07-23T12:41:41.981Z,13.93
2018-07-23T12:44:11.169Z,14.03
2018-07-23T12:46:39.482Z,14.27
2018-07-23T12:49:08.714Z,14.10
2018-07-23T12:51:37.210Z,14.60
2018-07-23T12:54:05.787Z,14.70
2018-07-23T12:56:34.230Z,15.37
2018-07-23T12:59:02.726Z,14.80
2018-07-23T13:01:31.227Z,14.80
2018-07-23T13:03:59.688Z,14.93
2018-07-23T13:06:28.194Z,15.53
2018-07-23T13:08:56.721Z,15.50
2018-07-23T13:11:25.428Z,16.10
2018-07-23T13:13:53.963Z,15.20
2018-07-23T13:16:22.608Z,15.67
2018-07-23T13:18:52.232Z,15.73
2018-07-23T13:21:20.765Z,15.57
2018-07-23T13:23:49.238Z,16.03
2018-07-23T13:26:17.381Z,15.83
2018-07-23T13:28:45.857Z,16.20
2018-07-23T13:31:14.410Z,15.87
2018-07-23T13:33:42.909Z,13.23
2018-07-23T13:36:11.410Z,14.90
2018-07-23T13:38:39.907Z,14.87
2018-07-23T13:41:08.413Z,14.63
2018-07-23T13:43:37.234Z,13.50
2018-07-23T13:46:05.701Z,14.30
2018-07-23T13:48:34.195Z,13.90
2018-07-23T13:51:02.770Z,13.50
2018-07-23T13:53:31.225Z,14.40
2018-07-23T13:55:59.414Z,14.83
2018-07-23T13:58:27.957Z,14.57
2018-07-23T14:00:56.457Z,15.60
2018-07-23T14:03:24.979Z,14.97
2018-07-23T14:05:53.713Z,14.50
2018-07-23T14:08:22.179Z,14.60
2018-07-23T14:10:50.652Z,13.97
2018-07-23T14:13:19.142Z,14.73
2018-07-23T14:15:47.641Z,13.77
2018-07-23T14:18:16.175Z,15.60
2018-07-23T14:20:44.696Z,14.77
2018-07-23T14:23:13.201Z,14.30
2018-07-23T14:25:41.722Z,15.30
2018-07-23T14:28:10.195Z,14.53
2018-07-23T14:30:38.690Z,15.53
2018-07-23T14:33:07.262Z,15.47
2018-07-23T14:35:36.050Z,13.30
2018-07-23T14:38:04.549Z,14.87
2018-07-23T14:40:33.050Z,13.80
2018-07-23T14:43:01.555Z,15.33
2018-07-23T14:45:30.277Z,14.50
2018-07-23T14:47:58.790Z,14.83
2018-07-23T14:50:27.303Z,13.70
2018-07-23T14:52:55.765Z,14.30
2018-07-23T14:55:24.255Z,14.40
2018-07-23T14:57:52.731Z,14.80
2018-07-23T15:00:21.259Z,14.77
2018-07-23T15:02:49.734Z,13.93
2018-07-23T15:05:18.299Z,15.80
2018-07-23T15:07:46.813Z,15.07
2018-07-23T15:10:15.286Z,15.40
2018-07-23T15:12:43.757Z,14.60
2018-07-23T15:15:12.374Z,15.60
2018-07-23T15:17:40.522Z,15.40
2018-07-23T15:20:09.274Z,15.30
2018-07-23T15:22:37.755Z,15.60
2018-07-23T15:25:06.246Z,14.50
2018-07-23T15:27:34.774Z,15.70
2018-07-23T15:30:03.312Z,15.87
2018-07-23T15:32:31.800Z,15.17
2018-07-23T15:35:00.310Z,16.40
2018-07-23T15:37:28.786Z,13.57
2018-07-23T15:39:57.342Z,14.03
2018-07-23T15:42:25.852Z,15.10
2018-07-23T15:44:54.523Z,13.27
2018-07-23T15:47:22.866Z,13.97
2018-07-23T15:49:51.407Z,14.87
2018-07-23T15:52:19.965Z,14.83
2018-07-23T15:54:48.520Z,12.83
2018-07-23T15:57:17.101Z,14.07
2018-07-23T15:59:45.841Z,13.50
2018-07-23T16:02:14.338Z,14.60
2018-07-23T16:04:42.817Z,15.20
2018-07-23T16:07:11.328Z,14.80
2018-07-23T16:09:39.809Z,14.17
2018-07-23T16:12:08.372Z,14.20
2018-07-23T16:14:37.225Z,15.17
2018-07-23T16:17:05.808Z,14.40
2018-07-23T16:19:34.657Z,14.27
2018-07-23T16:22:03.140Z,14.03
2018-07-23T16:24:31.638Z,15.50
2018-07-23T16:27:00.122Z,15.03
2018-07-23T16:29:28.642Z,14.97
2018-07-23T16:31:57.114Z,13.10
2018-07-23T16:34:25.632Z,12.40
2018-07-23T16:36:54.122Z,14.50
2018-07-23T16:39:22.661Z,16.40
2018-07-23T16:41:51.155Z,16.10
2018-07-23T16:44:33.371Z,17.47
2018-07-23T16:47:01.905Z,16.90
2018-07-23T16:49:30.373Z,16.90
2018-07-23T16:51:58.845Z,16.93
2018-07-23T16:54:26.981Z,16.87
2018-07-23T16:56:55.473Z,15.93
2018-07-23T16:59:23.977Z,15.50
2018-07-23T17:01:52.438Z,15.57
2018-07-23T17:04:20.944Z,15.77
2018-07-23T17:06:49.110Z,16.87
2018-07-23T17:09:17.642Z,15.40
2018-07-23T17:11:46.161Z,14.53
2018-07-23T17:14:14.637Z,15.17
2018-07-23T17:16:43.188Z,15.83
2018-07-23T17:19:11.625Z,16.23
2018-07-23T17:21:40.099Z,15.57
2018-07-23T17:24:08.601Z,15.13
2018-07-23T17:26:37.097Z,15.30
2018-07-23T17:29:05.606Z,15.20
2018-07-23T17:31:34.105Z,15.23
2018-07-23T17:34:02.610Z,15.10
2018-07-23T17:36:31.099Z,14.57
2018-07-23T17:38:59.593Z,14.93
2018-07-23T17:41:28.129Z,14.60
2018-07-23T17:43:56.638Z,15.10
2018-07-23T17:46:25.218Z,16.33
2018-07-23T17:48:53.742Z,15.00
2018-07-23T17:51:22.294Z,14.60
2018-07-23T17:53:50.798Z,14.70
2018-07-23T17:56:19.000Z,14.60
2018-07-23T17:58:47.658Z,15.03
2018-07-23T18:01:16.195Z,15.57
2018-07-23T18:03:44.718Z,20.60
2018-07-23T18:06:12.877Z,17.60
2018-07-23T18:08:41.476Z,15.50
2018-07-23T18:11:09.671Z,14.03
2018-07-23T18:13:38.161Z,14.03
2018-07-23T18:16:06.670Z,15.17
2018-07-23T18:18:37.523Z,15.07
2018-07-23T18:21:06.064Z,14.73
2018-07-23T18:23:34.542Z,14.40
2018-07-23T18:26:03.024Z,15.73
2018-07-23T18:28:31.537Z,15.30
2018-07-23T18:30:59.977Z,14.60
2018-07-23T18:33:28.498Z,14.30
2018-07-23T18:35:56.972Z,13.53
2018-07-23T18:38:25.610Z,16.50
2018-07-23T18:40:53.961Z,15.60
2018-07-23T18:43:22.480Z,15.10
2018-07-23T18:45:50.657Z,15.77
2018-07-23T18:49:35.220Z,15.80
2018-07-23T18:52:03.790Z,16.97
2018-07-23T18:54:33.009Z,17.70
2018-07-23T18:57:02.847Z,16.67
2018-07-23T18:59:31.432Z,17.20
2018-07-23T19:02:01.139Z,17.67
2018-07-23T19:04:29.641Z,16.30
2018-07-23T19:06:58.194Z,16.90
2018-07-23T19:09:27.698Z,16.67
2018-07-23T19:11:56.712Z,17.37
2018-07-23T19:14:25.203Z,18.97
2018-07-23T19:16:54.777Z,17.30
2018-07-23T19:19:22.928Z,18.30
2018-07-23T19:21:51.441Z,16.90
2018-07-23T19:24:19.951Z,17.20
2018-07-23T19:26:48.473Z,18.13
2018-07-23T19:29:16.964Z,17.33
2018-07-23T19:31:45.481Z,16.93
2018-07-23T19:34:13.962Z,16.57
2018-07-23T19:36:42.498Z,18.30
2018-07-23T19:39:12.661Z,16.33
2018-07-23T19:41:41.126Z,16.87
2018-07-23T19:44:09.918Z,16.97
2018-07-23T19:46:38.682Z,16.30
2018-07-23T19:49:07.206Z,17.70
2018-07-23T19:51:35.525Z,18.00
2018-07-23T19:54:04.269Z,17.37
2018-07-23T19:56:32.750Z,17.60
2018-07-23T19:59:01.277Z,17.23
2018-07-23T20:01:29.790Z,19.23
2018-07-23T20:03:58.285Z,16.40
2018-07-23T20:06:27.737Z,17.13
2018-07-23T20:08:57.140Z,17.50
2018-07-23T20:11:26.359Z,18.67
2018-07-23T20:13:54.950Z,17.23
2018-07-23T20:16:23.494Z,17.97
2018-07-23T20:18:52.100Z,17.93
2018-07-23T20:21:20.689Z,18.07
2018-07-23T20:23:49.554Z,18.37
2018-07-23T20:26:21.308Z,17.93
2018-07-23T20:28:50.060Z,18.90
2018-07-23T20:31:20.869Z,17.37
2018-07-23T20:33:52.339Z,17.97
2018-07-23T20:36:20.874Z,18.00
2018-07-23T20:38:50.434Z,17.23
2018-07-23T20:41:20.356Z,18.50
2018-07-23T20:43:48.857Z,16.90
2018-07-23T20:46:17.399Z,16.03
2018-07-23T20:48:49.622Z,17.60
2018-07-23T20:51:18.947Z,16.40
2018-07-23T20:53:50.039Z,18.47
2018-07-23T20:56:18.580Z,18.97
2018-07-23T20:58:51.395Z,17.47
2018-07-23T21:01:22.258Z,18.03
2018-07-23T21:03:50.876Z,16.80
2018-07-23T21:06:22.195Z,18.20
2018-07-23T21:08:52.532Z,18.30
2018-07-23T21:11:21.021Z,18.70
2018-07-23T21:13:49.551Z,18.67
2018-07-23T21:16:18.065Z,18.50
2018-07-23T21:18:51.480Z,19.03
2018-07-23T21:21:19.853Z,17.77
2018-07-23T21:23:49.513Z,17.63
2018-07-23T21:26:18.041Z,17.17
2018-07-23T21:28:47.718Z,17.77
2018-07-23T21:31:16.625Z,18.80
2018-07-23T21:33:45.126Z,18.80
2018-07-23T21:36:15.206Z,18.13
2018-07-23T21:38:44.850Z,18.20
2018-07-23T21:41:13.374Z,17.70
2018-07-23T21:43:41.959Z,17.77
2018-07-23T21:46:10.432Z,17.50
2018-07-23T21:48:42.349Z,18.47
2018-07-23T21:51:10.801Z,17.40
2018-07-23T21:53:39.309Z,17.30
2018-07-23T21:56:07.799Z,18.10
2018-07-23T21:58:36.289Z,17.47
2018-07-23T22:01:05.167Z,17.90
2018-07-23T22:03:33.679Z,17.53
2018-07-23T22:06:02.309Z,17.97
2018-07-23T22:08:30.782Z,17.50
2018-07-23T22:10:59.273Z,18.20
2018-07-23T22:13:27.842Z,16.73
2018-07-23T22:15:56.310Z,16.50
2018-07-23T22:18:24.869Z,16.90
2018-07-23T22:20:53.022Z,18.63
2018-07-23T22:23:21.509Z,18.23
2018-07-23T22:25:50.037Z,17.97
2018-07-23T22:28:18.574Z,18.10
2018-07-23T22:30:47.091Z,17.17
2018-07-23T22:33:15.570Z,17.03
2018-07-23T22:35:44.077Z,17.90
2018-07-23T22:38:12.683Z,18.47
2018-07-23T22:40:41.165Z,18.50
2018-07-23T22:43:09.718Z,17.70
2018-07-23T22:45:38.184Z,17.37
2018-07-23T22:48:06.730Z,15.00
2018-07-23T22:50:35.234Z,16.97
2018-07-23T22:53:03.738Z,17.37
2018-07-23T22:55:32.211Z,16.60
2018-07-23T22:58:00.381Z,17.20
2018-07-23T23:00:28.892Z,17.93
2018-07-23T23:02:57.391Z,17.10
2018-07-23T23:05:25.947Z,17.57
2018-07-23T23:07:54.457Z,17.63
2018-07-23T23:10:22.996Z,18.40
2018-07-23T23:12:51.826Z,18.57
2018-07-23T23:15:20.340Z,20.57
2018-07-23T23:17:48.858Z,20.57
2018-07-23T23:20:17.399Z,18.97
2018-07-23T23:22:45.896Z,18.50
2018-07-23T23:25:14.397Z,20.67
2018-07-23T23:27:42.873Z,18.83
2018-07-23T23:30:11.367Z,19.20
2018-07-23T23:32:39.836Z,20.33
2018-07-23T23:35:08.363Z,19.77
2018-07-23T23:37:37.025Z,18.87
2018-07-23T23:40:05.886Z,20.00
2018-07-23T23:42:34.393Z,20.00
2018-07-23T23:45:02.882Z,17.93
2018-07-23T23:47:31.374Z,20.17
2018-07-23T23:50:00.085Z,20.40
2018-07-23T23:52:28.554Z,18.47
2018-07-23T23:54:57.093Z,19.10
2018-07-23T23:57:25.573Z,20.30
2018-07-23T23:59:54.139Z,19.73
